createdAt,value
2018-05-17T00:01:14.627Z,6.87
2018-05-17T00:03:42.535Z,6.57
2018-05-17T00:06:10.447Z,6.70
2018-05-17T00:08:38.382Z,8.30
2018-05-17T00:11:06.316Z,6.20
2018-05-17T00:13:34.229Z,5.73
2018-05-17T00:16:02.167Z,6.40
2018-05-17T00:18:30.061Z,6.40
2018-05-17T00:20:57.991Z,6.50
2018-05-17T00:23:25.916Z,5.30
2018-05-17T00:25:53.831Z,5.60
2018-05-17T00:28:21.739Z,5.70
2018-05-17T00:30:49.669Z,5.90
2018-05-17T00:33:17.575Z,5.13
2018-05-17T00:35:45.590Z,4.97
2018-05-17T00:38:13.510Z,6.00
2018-05-17T00:40:41.450Z,4.40
2018-05-17T00:43:09.371Z,4.63
2018-05-17T00:45:37.295Z,4.90
2018-05-17T00:48:05.215Z,5.60
2018-05-17T00:50:33.132Z,4.97
2018-05-17T00:53:12.877Z,4.37
2018-05-17T00:55:40.821Z,4.87
2018-05-17T00:58:08.732Z,4.67
2018-05-17T01:00:36.636Z,4.90
2018-05-17T01:03:04.542Z,5.10
2018-05-17T01:05:32.527Z,4.87
2018-05-17T01:08:00.464Z,4.27
2018-05-17T01:10:28.383Z,4.53
2018-05-17T01:12:56.334Z,4.23
2018-05-17T01:15:24.234Z,5.63
2018-05-17T01:17:52.202Z,6.77
2018-05-17T01:20:20.105Z,5.40
2018-05-17T01:22:48.040Z,5.80
2018-05-17T01:25:15.957Z,6.43
2018-05-17T01:27:43.887Z,5.60
2018-05-17T01:30:11.923Z,6.40
2018-05-17T01:32:39.837Z,6.57
2018-05-17T01:35:07.833Z,6.47
2018-05-17T01:37:47.382Z,7.20
2018-05-17T01:40:15.288Z,6.40
2018-05-17T01:42:43.213Z,6.30
2018-05-17T01:45:11.125Z,5.77
2018-05-17T01:47:39.051Z,7.83
2018-05-17T01:50:06.990Z,6.83
2018-05-17T01:52:34.893Z,6.90
2018-05-17T01:55:02.827Z,8.37
2018-05-17T01:57:30.730Z,6.80
2018-05-17T01:59:58.644Z,6.87
2018-05-17T02:02:26.566Z,6.90
2018-05-17T02:04:54.480Z,7.97
2018-05-17T02:07:22.388Z,5.97
2018-05-17T02:09:50.432Z,6.10
2018-05-17T02:12:18.323Z,6.73
2018-05-17T02:14:46.247Z,7.43
2018-05-17T02:17:14.173Z,6.93
2018-05-17T02:19:42.083Z,8.00
2018-05-17T02:22:10.072Z,6.33
2018-05-17T02:24:37.977Z,6.20
2018-05-17T02:27:06.049Z,7.40
2018-05-17T02:29:33.973Z,7.80
2018-05-17T02:32:01.886Z,6.67
2018-05-17T02:34:29.812Z,7.40
2018-05-17T02:36:57.722Z,7.30
2018-05-17T02:39:25.645Z,8.27
2018-05-17T02:41:53.566Z,7.10
2018-05-17T02:44:21.535Z,6.90
2018-05-17T02:46:49.428Z,7.53
2018-05-17T02:49:17.491Z,7.60
2018-05-17T02:51:45.321Z,6.20
2018-05-17T02:54:13.246Z,7.03
2018-05-17T02:56:41.463Z,8.03
2018-05-17T02:59:09.394Z,7.93
2018-05-17T03:01:37.298Z,7.63
2018-05-17T03:04:05.626Z,6.90
2018-05-17T03:06:33.561Z,6.30
2018-05-17T03:09:01.473Z,6.67
2018-05-17T03:11:29.910Z,6.43
2018-05-17T03:13:57.824Z,8.20
2018-05-17T03:16:25.730Z,7.53
2018-05-17T03:18:53.652Z,6.60
2018-05-17T03:21:21.602Z,6.70
2018-05-17T03:23:49.527Z,7.07
2018-05-17T03:26:17.458Z,7.20
2018-05-17T03:28:45.637Z,6.03
2018-05-17T03:31:13.541Z,7.63
2018-05-17T03:33:41.456Z,7.30
2018-05-17T03:36:09.369Z,6.67
2018-05-17T03:38:37.300Z,7.67
2018-05-17T03:41:05.219Z,6.87
2018-05-17T03:43:33.151Z,6.13
2018-05-17T03:46:01.067Z,7.43
2018-05-17T03:48:29.022Z,6.17
2018-05-17T03:50:56.919Z,8.00
2018-05-17T03:53:24.859Z,6.77
2018-05-17T03:55:52.763Z,7.07
2018-05-17T03:58:20.701Z,6.37
2018-05-17T04:01:00.481Z,6.83
2018-05-17T04:03:40.252Z,6.00
2018-05-17T04:06:20.033Z,6.50
2018-05-17T04:08:48.787Z,7.33
2018-05-17T04:11:16.713Z,5.90
2018-05-17T04:13:44.738Z,7.07
2018-05-17T04:16:12.636Z,5.80
2018-05-17T04:18:40.558Z,5.60
2018-05-17T04:21:08.532Z,8.70
2018-05-17T04:23:36.518Z,7.07
2018-05-17T04:26:04.445Z,7.27
2018-05-17T04:28:32.346Z,7.37
2018-05-17T04:31:00.302Z,7.73
2018-05-17T04:33:28.212Z,7.57
2018-05-17T04:35:56.155Z,7.20
2018-05-17T04:38:24.065Z,7.37
2018-05-17T04:40:52.004Z,7.80
2018-05-17T04:43:19.910Z,7.90
2018-05-17T04:45:47.852Z,8.87
2018-05-17T04:48:15.783Z,8.70
2018-05-17T04:50:43.708Z,9.87
2018-05-17T04:53:12.623Z,8.97
2018-05-17T04:55:40.576Z,10.97
2018-05-17T04:58:08.512Z,8.03
2018-05-17T05:00:36.448Z,10.03
2018-05-17T05:03:04.403Z,8.77
2018-05-17T05:05:32.990Z,10.27
2018-05-17T05:08:01.433Z,9.60
2018-05-17T05:10:29.355Z,8.10
2018-05-17T05:12:57.300Z,9.37
2018-05-17T05:15:25.211Z,9.70
2018-05-17T05:17:53.172Z,9.70
2018-05-17T05:20:21.272Z,11.47
2018-05-17T05:22:49.405Z,9.10
2018-05-17T05:25:17.602Z,10.77
2018-05-17T05:27:45.543Z,10.80
2018-05-17T05:30:13.592Z,9.33
2018-05-17T05:32:41.603Z,10.00
2018-05-17T05:35:09.621Z,9.60
2018-05-17T05:37:37.759Z,9.03
2018-05-17T05:40:05.613Z,9.90
2018-05-17T05:42:33.717Z,10.37
2018-05-17T05:45:01.665Z,9.50
2018-05-17T05:47:29.602Z,11.07
2018-05-17T05:49:57.658Z,10.67
2018-05-17T05:52:25.659Z,10.40
2018-05-17T05:54:55.289Z,9.93
2018-05-17T05:57:23.248Z,10.20
2018-05-17T05:59:51.180Z,11.50
2018-05-17T06:02:19.378Z,9.57
2018-05-17T06:04:47.277Z,10.57
2018-05-17T06:07:15.490Z,9.00
2018-05-17T06:09:43.523Z,10.03
2018-05-17T06:12:11.645Z,9.37
2018-05-17T06:14:39.649Z,10.33
2018-05-17T06:17:07.579Z,9.80
2018-05-17T06:19:35.518Z,9.10
2018-05-17T06:22:03.440Z,10.03
2018-05-17T06:24:31.377Z,10.87
2018-05-17T06:26:59.291Z,9.40
2018-05-17T06:29:27.232Z,9.80
2018-05-17T06:31:55.147Z,10.50
2018-05-17T06:34:23.113Z,9.50
2018-05-17T06:36:51.097Z,9.87
2018-05-17T06:39:19.019Z,9.63
2018-05-17T06:41:46.952Z,10.07
2018-05-17T06:44:15.798Z,10.60
2018-05-17T06:46:43.762Z,9.30
2018-05-17T06:49:11.691Z,11.63
2018-05-17T06:51:39.653Z,9.90
2018-05-17T06:54:07.562Z,10.30
2018-05-17T06:56:35.476Z,11.20
2018-05-17T06:59:03.418Z,9.17
2018-05-17T07:01:31.345Z,11.90
2018-05-17T07:03:59.247Z,8.27
2018-05-17T07:06:27.239Z,8.80
2018-05-17T07:08:55.165Z,9.10
2018-05-17T07:11:23.116Z,8.13
2018-05-17T07:13:51.072Z,9.70
2018-05-17T07:16:19.029Z,9.10
2018-05-17T07:18:47.355Z,10.80
2018-05-17T07:21:14.895Z,10.03
2018-05-17T07:23:42.827Z,9.10
2018-05-17T07:26:10.775Z,9.60
2018-05-17T07:28:38.726Z,10.03
2018-05-17T07:31:06.672Z,9.03
2018-05-17T07:33:34.709Z,12.50
2018-05-17T07:36:02.620Z,10.30
2018-05-17T07:38:30.552Z,10.70
2018-05-17T07:40:58.497Z,8.70
2018-05-17T07:43:26.442Z,10.23
2018-05-17T07:45:54.351Z,8.70
2018-05-17T07:48:22.305Z,9.40
2018-05-17T07:50:50.285Z,10.17
2018-05-17T07:53:18.206Z,9.77
2018-05-17T07:55:46.128Z,9.80
2018-05-17T07:58:14.052Z,9.53
2018-05-17T08:00:41.981Z,10.27
2018-05-17T08:03:09.919Z,11.47
2018-05-17T08:05:37.840Z,9.30
2018-05-17T08:08:05.769Z,9.67
2018-05-17T08:10:33.676Z,10.03
2018-05-17T08:13:01.598Z,9.57
2018-05-17T08:15:29.649Z,11.30
2018-05-17T08:17:57.681Z,9.33
2018-05-17T08:20:25.604Z,10.83
2018-05-17T08:22:53.567Z,10.77
2018-05-17T08:25:21.483Z,10.43
2018-05-17T08:27:49.401Z,11.87
2018-05-17T08:30:17.644Z,13.83
2018-05-17T08:32:45.528Z,12.27
2018-05-17T08:35:13.558Z,12.53
2018-05-17T08:37:41.446Z,10.50
2018-05-17T08:40:09.383Z,10.83
2018-05-17T08:42:37.394Z,8.67
2018-05-17T08:45:05.570Z,9.40
2018-05-17T08:47:33.468Z,10.53
2018-05-17T08:50:02.078Z,10.70
2018-05-17T08:52:29.998Z,10.47
2018-05-17T08:54:58.804Z,10.20
2018-05-17T08:57:27.731Z,10.33
2018-05-17T08:59:55.657Z,9.73
2018-05-17T09:02:23.572Z,11.30
2018-05-17T09:04:51.720Z,14.37
2018-05-17T09:07:19.984Z,10.33
2018-05-17T09:09:47.884Z,10.33
2018-05-17T09:12:15.833Z,11.03
2018-05-17T09:14:43.780Z,9.47
2018-05-17T09:17:11.715Z,11.70
2018-05-17T09:19:39.646Z,8.20
2018-05-17T09:22:07.591Z,10.77
2018-05-17T09:24:35.532Z,10.13
2018-05-17T09:27:03.465Z,10.77
2018-05-17T09:29:31.393Z,11.93
2018-05-17T09:31:59.932Z,8.87
2018-05-17T09:34:27.856Z,8.50
2018-05-17T09:36:55.786Z,8.30
2018-05-17T09:39:23.968Z,9.40
2018-05-17T09:41:51.880Z,8.80
2018-05-17T09:44:19.799Z,9.07
2018-05-17T09:46:47.731Z,9.27
2018-05-17T09:49:15.657Z,10.23
2018-05-17T09:51:43.580Z,8.83
2018-05-17T09:54:11.919Z,8.90
2018-05-17T09:56:39.878Z,8.17
2018-05-17T09:59:07.843Z,9.30
2018-05-17T10:01:35.784Z,8.93
2018-05-17T10:04:03.712Z,9.40
2018-05-17T10:06:31.621Z,9.90
2018-05-17T10:08:59.655Z,9.37
2018-05-17T10:11:27.488Z,10.40
2018-05-17T10:13:55.442Z,9.00
2018-05-17T10:16:23.544Z,8.57
2018-05-17T10:18:51.450Z,7.93
2018-05-17T10:21:19.380Z,10.97
2018-05-17T10:23:47.326Z,8.00
2018-05-17T10:26:15.297Z,8.43
2018-05-17T10:28:43.211Z,11.13
2018-05-17T10:31:11.384Z,7.97
2018-05-17T10:33:39.281Z,8.57
2018-05-17T10:36:07.191Z,8.10
2018-05-17T10:38:35.133Z,8.50
2018-05-17T10:41:03.061Z,9.40
2018-05-17T10:43:30.973Z,9.63
2018-05-17T10:45:58.933Z,10.10
2018-05-17T10:48:26.877Z,8.87
2018-05-17T10:50:54.795Z,9.37
2018-05-17T10:53:22.764Z,8.50
2018-05-17T10:55:50.674Z,10.37
2018-05-17T10:58:18.575Z,8.03
2018-05-17T11:00:46.591Z,8.60
2018-05-17T11:03:14.506Z,8.03
2018-05-17T11:05:42.753Z,8.97
2018-05-17T11:08:10.748Z,8.97
2018-05-17T11:10:39.621Z,7.60
2018-05-17T11:13:07.534Z,8.80
2018-05-17T11:15:36.200Z,9.17
2018-05-17T11:18:04.144Z,10.90
2018-05-17T11:20:32.052Z,9.67
2018-05-17T11:22:59.980Z,10.77
2018-05-17T11:25:27.944Z,10.73
2018-05-17T11:27:55.884Z,9.63
2018-05-17T11:30:24.869Z,9.37
2018-05-17T11:32:52.782Z,9.50
2018-05-17T11:35:20.728Z,9.33
2018-05-17T11:37:48.721Z,8.67
2018-05-17T11:40:17.001Z,9.50
2018-05-17T11:42:44.884Z,9.53
2018-05-17T11:45:12.822Z,10.80
2018-05-17T11:47:40.869Z,10.40
2018-05-17T11:50:08.850Z,8.80
2018-05-17T11:52:36.789Z,9.33
2018-05-17T11:55:04.686Z,10.27
2018-05-17T11:57:32.624Z,9.93
2018-05-17T12:00:00.553Z,9.27
2018-05-17T12:02:28.458Z,10.10
2018-05-17T12:04:56.467Z,9.17
2018-05-17T12:07:25.311Z,11.03
2018-05-17T12:09:53.249Z,10.27
2018-05-17T12:12:21.269Z,10.30
2018-05-17T12:14:49.196Z,10.23
2018-05-17T12:17:17.152Z,10.37
2018-05-17T12:19:45.070Z,12.20
2018-05-17T12:22:13.036Z,10.60
2018-05-17T12:24:41.068Z,9.87
2018-05-17T12:27:08.981Z,8.60
2018-05-17T12:29:36.901Z,10.47
2018-05-17T12:32:04.815Z,9.17
2018-05-17T12:34:32.734Z,10.53
2018-05-17T12:37:00.658Z,11.83
2018-05-17T12:39:28.584Z,10.90
2018-05-17T12:41:56.523Z,10.07
2018-05-17T12:44:24.431Z,9.13
2018-05-17T12:46:52.360Z,8.83
2018-05-17T12:49:20.268Z,8.40
2018-05-17T12:51:48.220Z,9.43
2018-05-17T12:54:16.136Z,8.90
2018-05-17T12:56:44.144Z,8.73
2018-05-17T12:59:12.042Z,9.83
2018-05-17T13:01:39.990Z,9.60
2018-05-17T13:04:07.930Z,10.20
2018-05-17T13:06:35.875Z,9.30
2018-05-17T13:09:03.777Z,9.53
2018-05-17T13:11:31.735Z,9.50
2018-05-17T13:13:59.696Z,9.33
2018-05-17T13:16:27.675Z,9.13
2018-05-17T13:18:55.584Z,8.90
2018-05-17T13:21:23.548Z,10.97
2018-05-17T13:23:51.475Z,10.40
2018-05-17T13:26:19.432Z,10.70
2018-05-17T13:28:47.365Z,9.10
2018-05-17T13:31:15.298Z,10.43
2018-05-17T13:33:43.221Z,10.00
2018-05-17T13:36:11.165Z,10.63
2018-05-17T13:38:39.106Z,11.70
2018-05-17T13:41:07.040Z,10.47
2018-05-17T13:43:35.051Z,9.83
2018-05-17T13:46:02.971Z,9.43
2018-05-17T13:48:30.909Z,8.93
2018-05-17T13:50:58.850Z,8.83
2018-05-17T13:53:26.776Z,10.57
2018-05-17T13:55:54.728Z,9.17
2018-05-17T13:58:22.646Z,9.47
2018-05-17T14:00:50.590Z,7.90
2018-05-17T14:03:18.521Z,10.40
2018-05-17T14:05:46.457Z,8.47
2018-05-17T14:08:14.416Z,12.43
2018-05-17T14:10:42.372Z,8.43
2018-05-17T14:13:10.301Z,10.53
2018-05-17T14:15:38.312Z,8.43
2018-05-17T14:18:06.205Z,9.87
2018-05-17T14:20:34.114Z,8.83
2018-05-17T14:23:02.104Z,8.13
2018-05-17T14:25:29.989Z,8.80
2018-05-17T14:27:57.936Z,8.50
2018-05-17T14:30:25.880Z,9.23
2018-05-17T14:32:53.846Z,8.57
2018-05-17T14:35:21.767Z,8.30
2018-05-17T14:37:49.987Z,8.37
2018-05-17T14:40:17.939Z,8.00
2018-05-17T14:42:45.856Z,9.67
2018-05-17T14:45:13.815Z,8.77
2018-05-17T14:47:41.729Z,9.07
2018-05-17T14:50:09.653Z,7.50
2018-05-17T14:52:37.581Z,9.30
2018-05-17T14:55:05.555Z,9.50
2018-05-17T14:57:33.449Z,10.17
2018-05-17T15:00:01.361Z,9.40
2018-05-17T15:02:29.291Z,8.90
2018-05-17T15:04:57.197Z,8.27
2018-05-17T15:07:25.152Z,8.90
2018-05-17T15:09:53.077Z,8.77
2018-05-17T15:12:21.080Z,7.70
2018-05-17T15:14:49.012Z,8.63
2018-05-17T15:17:16.942Z,7.33
2018-05-17T15:19:44.951Z,8.23
2018-05-17T15:22:12.900Z,8.27
2018-05-17T15:24:40.897Z,8.70
2018-05-17T15:27:08.773Z,9.20
2018-05-17T15:29:36.813Z,6.93
2018-05-17T15:32:04.652Z,8.13
2018-05-17T15:34:32.593Z,7.50
2018-05-17T15:37:00.500Z,9.30
2018-05-17T15:39:28.445Z,9.43
2018-05-17T15:41:56.379Z,9.00
2018-05-17T15:44:24.299Z,10.00
2018-05-17T15:46:52.281Z,9.07
2018-05-17T15:49:20.254Z,10.27
2018-05-17T15:51:48.236Z,8.93
2018-05-17T15:54:16.151Z,7.87
2018-05-17T15:56:44.111Z,8.07
2018-05-17T15:59:12.034Z,9.77
2018-05-17T16:01:40.005Z,8.67
2018-05-17T16:04:07.929Z,8.47
2018-05-17T16:06:35.958Z,9.93
2018-05-17T16:09:03.823Z,9.13
2018-05-17T16:11:31.739Z,9.07
2018-05-17T16:13:59.752Z,11.03
2018-05-17T16:16:27.739Z,8.23
2018-05-17T16:18:55.689Z,9.67
2018-05-17T16:21:23.655Z,9.90
2018-05-17T16:23:51.638Z,7.80
2018-05-17T16:26:19.596Z,8.80
2018-05-17T16:28:47.507Z,8.47
2018-05-17T16:31:15.516Z,9.63
2018-05-17T16:33:43.453Z,9.83
2018-05-17T16:36:11.406Z,8.90
2018-05-17T16:38:39.320Z,8.37
2018-05-17T16:41:07.240Z,8.33
2018-05-17T16:43:35.158Z,8.60
2018-05-17T16:46:03.124Z,10.30
2018-05-17T16:48:31.086Z,9.30
2018-05-17T16:50:58.983Z,9.60
2018-05-17T16:53:26.903Z,11.57
2018-05-17T16:55:54.956Z,11.10
2018-05-17T16:58:22.933Z,10.10
2018-05-17T17:00:50.980Z,9.87
2018-05-17T17:03:18.922Z,10.17
2018-05-17T17:05:46.866Z,9.63
2018-05-17T17:08:14.827Z,10.13
2018-05-17T17:10:42.758Z,10.20
2018-05-17T17:13:11.476Z,10.13
2018-05-17T17:15:39.407Z,11.90
2018-05-17T17:18:07.331Z,10.40
2018-05-17T17:20:35.244Z,12.03
2018-05-17T17:23:03.184Z,9.80
2018-05-17T17:25:31.092Z,9.20
2018-05-17T17:27:59.051Z,10.40
2018-05-17T17:30:26.960Z,10.30
2018-05-17T17:32:54.883Z,10.00
2018-05-17T17:35:22.800Z,10.80
2018-05-17T17:37:50.734Z,10.47
2018-05-17T17:40:18.644Z,9.33
2018-05-17T17:42:46.584Z,10.70
2018-05-17T17:45:14.505Z,11.50
2018-05-17T17:47:42.535Z,10.23
2018-05-17T17:50:10.448Z,12.00
2018-05-17T17:52:38.394Z,9.43
2018-05-17T17:55:06.335Z,9.23
2018-05-17T17:57:34.388Z,10.00
2018-05-17T18:00:02.378Z,11.80
2018-05-17T18:02:30.354Z,11.23
2018-05-17T18:04:58.286Z,11.03
2018-05-17T18:07:26.225Z,9.83
2018-05-17T18:09:54.141Z,11.93
2018-05-17T18:12:22.157Z,11.93
2018-05-17T18:14:50.227Z,11.70
2018-05-17T18:17:18.197Z,11.00
2018-05-17T18:19:46.243Z,11.43
2018-05-17T18:22:14.153Z,12.23
2018-05-17T18:24:42.060Z,11.93
2018-05-17T18:27:09.988Z,11.30
2018-05-17T18:29:37.927Z,11.50
2018-05-17T18:32:05.880Z,11.80
2018-05-17T18:34:33.776Z,11.07
2018-05-17T18:37:01.714Z,11.90
2018-05-17T18:39:29.652Z,11.60
2018-05-17T18:41:57.589Z,11.23
2018-05-17T18:44:25.528Z,11.83
2018-05-17T18:46:53.460Z,11.10
2018-05-17T18:49:21.386Z,11.33
2018-05-17T18:51:49.329Z,10.90
2018-05-17T18:54:17.247Z,10.57
2018-05-17T18:56:45.179Z,12.50
2018-05-17T18:59:13.140Z,12.77
2018-05-17T19:01:41.142Z,12.63
2018-05-17T19:04:09.455Z,11.57
2018-05-17T19:06:37.383Z,10.93
2018-05-17T19:09:05.321Z,11.67
2018-05-17T19:11:33.277Z,12.20
2018-05-17T19:14:01.315Z,13.67
2018-05-17T19:16:29.240Z,10.70
2018-05-17T19:18:57.172Z,11.70
2018-05-17T19:21:25.118Z,11.70
2018-05-17T19:23:53.057Z,12.00
2018-05-17T19:26:20.991Z,12.77
2018-05-17T19:28:48.983Z,11.57
2018-05-17T19:31:16.912Z,14.03
2018-05-17T19:33:44.834Z,11.63
2018-05-17T19:36:12.690Z,11.30
2018-05-17T19:38:41.408Z,11.43
2018-05-17T19:41:09.355Z,31.50
2018-05-17T19:43:37.278Z,20.50
2018-05-17T19:46:05.379Z,31.07
2018-05-17T19:48:33.301Z,24.03
2018-05-17T19:51:01.278Z,22.43
2018-05-17T19:53:29.206Z,12.87
2018-05-17T19:55:57.152Z,11.53
2018-05-17T19:58:25.076Z,11.93
2018-05-17T20:00:52.994Z,12.23
2018-05-17T20:03:21.015Z,12.17
2018-05-17T20:05:49.034Z,11.00
2018-05-17T20:08:17.131Z,13.80
2018-05-17T20:10:45.073Z,13.20
2018-05-17T20:13:13.484Z,11.57
2018-05-17T20:15:41.557Z,11.57
2018-05-17T20:18:09.442Z,13.37
2018-05-17T20:20:38.172Z,11.60
2018-05-17T20:23:06.128Z,11.97
2018-05-17T20:25:34.724Z,11.60
2018-05-17T20:28:02.687Z,11.30
2018-05-17T20:30:30.611Z,11.33
2018-05-17T20:32:58.616Z,11.97
2018-05-17T20:35:26.541Z,11.90
2018-05-17T20:37:54.473Z,12.20
2018-05-17T20:40:22.395Z,10.10
2018-05-17T20:42:52.229Z,13.73
2018-05-17T20:45:20.183Z,10.97
2018-05-17T20:47:48.168Z,12.77
2018-05-17T20:50:16.101Z,19.87
2018-05-17T20:52:44.059Z,22.43
2018-05-17T20:55:12.371Z,35.80
2018-05-17T20:57:40.277Z,32.30
2018-05-17T21:00:08.212Z,21.83
2018-05-17T21:02:36.144Z,20.47
2018-05-17T21:05:04.126Z,17.70
2018-05-17T21:07:32.049Z,10.90
2018-05-17T21:10:00.006Z,13.90
2018-05-17T21:12:27.921Z,10.30
2018-05-17T21:14:55.898Z,11.50
2018-05-17T21:17:24.232Z,12.80
2018-05-17T21:19:52.175Z,11.73
2018-05-17T21:22:20.110Z,10.53
2018-05-17T21:24:48.052Z,13.50
2018-05-17T21:27:16.024Z,11.87
2018-05-17T21:29:43.990Z,12.23
2018-05-17T21:32:12.244Z,12.50
2018-05-17T21:34:40.229Z,12.10
2018-05-17T21:37:08.184Z,13.77
2018-05-17T21:39:36.271Z,12.97
2018-05-17T21:42:04.180Z,10.47
2018-05-17T21:44:32.904Z,11.40
2018-05-17T21:47:00.843Z,11.87
2018-05-17T21:49:28.843Z,11.97
2018-05-17T21:51:57.667Z,12.30
2018-05-17T21:54:25.642Z,12.60
2018-05-17T21:56:53.631Z,11.50
2018-05-17T21:59:21.617Z,11.07
2018-05-17T22:01:49.559Z,11.90
2018-05-17T22:04:17.509Z,12.07
2018-05-17T22:06:45.453Z,11.80
2018-05-17T22:09:13.378Z,12.93
2018-05-17T22:11:41.326Z,12.57
2018-05-17T22:14:09.272Z,12.10
2018-05-17T22:16:37.375Z,12.40
2018-05-17T22:19:05.289Z,15.47
2018-05-17T22:21:33.235Z,13.70
2018-05-17T22:24:01.156Z,13.23
2018-05-17T22:26:29.064Z,12.90
2018-05-17T22:28:56.988Z,13.83
2018-05-17T22:31:24.920Z,13.30
2018-05-17T22:33:52.863Z,14.00
2018-05-17T22:36:20.792Z,12.23
2018-05-17T22:38:48.714Z,13.70
2018-05-17T22:41:16.640Z,13.50
2018-05-17T22:43:44.570Z,11.77
2018-05-17T22:46:13.310Z,13.23
2018-05-17T22:48:41.223Z,13.60
2018-05-17T22:51:10.075Z,13.73
2018-05-17T22:53:38.012Z,14.20
2018-05-17T22:56:06.111Z,14.50
2018-05-17T22:58:34.052Z,15.60
2018-05-17T23:01:02.849Z,15.40
2018-05-17T23:03:30.782Z,15.17
2018-05-17T23:05:58.703Z,15.37
2018-05-17T23:08:26.648Z,14.60
2018-05-17T23:10:54.543Z,14.73
2018-05-17T23:13:22.472Z,14.60
2018-05-17T23:15:50.398Z,17.93
2018-05-17T23:18:18.351Z,16.00
2018-05-17T23:20:46.289Z,15.93
2018-05-17T23:23:14.669Z,17.23
2018-05-17T23:25:42.612Z,15.83
2018-05-17T23:28:10.549Z,17.40
2018-05-17T23:30:38.600Z,17.97
2018-05-17T23:33:06.542Z,17.33
2018-05-17T23:35:34.467Z,18.50
2018-05-17T23:38:02.435Z,16.03
2018-05-17T23:43:30.793Z,17.10
2018-05-17T23:45:58.746Z,17.87
2018-05-17T23:48:26.716Z,19.73
2018-05-17T23:50:55.280Z,20.73
2018-05-17T23:53:23.207Z,21.67
2018-05-17T23:55:51.157Z,21.07
2018-05-17T23:58:19.232Z,20.33
